Time;durP1;ratioP1;P1;durP2;ratioP2;P2;SDS_P1;SDS_P2;PMS_P1;PMS_P2;Temp;Humidity;BMP_temperature;BMP_pressure;BME280_temperature;BME280_humidity;BME280_pressure;Samples;Min_cycle;Max_cycle;Signal;HPM_P1;HPM_P2
2022/11/10 00:01:55;;;;;;;1.15;1.10;;;10.50;99.90;;;;;;5028590;28;20478;-76
2022/11/10 00:04:21;;;;;;;1.08;1.00;;;10.50;99.90;;;;;;5028642;28;20029;-76
2022/11/10 00:06:47;;;;;;;1.95;1.30;;;10.40;99.90;;;;;;5029112;28;20132;-76
2022/11/10 00:09:13;;;;;;;1.60;1.10;;;10.40;99.90;;;;;;5029159;28;20482;-76
2022/11/10 00:11:41;;;;;;;2.38;1.15;;;10.30;99.90;;;;;;5028645;28;20375;-76
2022/11/10 00:17:03;;;;;;;1.73;1.40;;;10.00;99.90;;;;;;5028250;28;20417;-76
2022/11/10 00:19:29;;;;;;;3.65;2.70;;;9.90;99.90;;;;;;5028387;28;20550;-76
2022/11/10 00:21:58;;;;;;;3.85;1.85;;;9.90;99.90;;;;;;5028790;28;20045;-76
2022/11/10 00:24:24;;;;;;;2.00;1.53;;;9.90;99.90;;;;;;5028307;28;20045;-76
2022/11/10 00:26:50;;;;;;;1.92;1.65;;;9.90;99.90;;;;;;5028944;28;20044;-76
2022/11/10 00:29:16;;;;;;;2.38;2.17;;;9.90;99.90;;;;;;5043206;28;20086;-75
2022/11/10 00:31:42;;;;;;;3.88;2.75;;;9.90;99.90;;;;;;5048388;28;20033;-76
2022/11/10 00:34:13;;;;;;;5.00;2.22;;;9.90;99.90;;;;;;5047987;28;20127;-76
2022/11/10 00:36:39;;;;;;;1.80;1.70;;;9.80;99.90;;;;;;5048463;28;20116;-75
2022/11/10 00:39:05;;;;;;;6.43;2.20;;;9.80;99.90;;;;;;5048096;28;20112;-76
2022/11/10 00:41:31;;;;;;;4.85;2.42;;;9.70;99.90;;;;;;5048065;28;20468;-75
2022/11/10 00:43:56;;;;;;;3.00;2.22;;;9.70;99.90;;;;;;5047957;28;20561;-75
2022/11/10 00:46:22;;;;;;;3.72;2.67;;;9.70;99.90;;;;;;5048058;28;20112;-75
2022/11/10 00:48:48;;;;;;;1.48;1.38;;;9.60;99.90;;;;;;5029508;28;20020;-75
2022/11/10 00:51:28;;;;;;;2.55;1.85;;;9.60;99.90;;;;;;5047715;28;20108;-75
2022/11/10 00:53:54;;;;;;;2.10;1.70;;;9.60;99.90;;;;;;5048038;28;20377;-76
2022/11/10 00:56:21;;;;;;;3.80;1.95;;;9.50;99.90;;;;;;5048038;28;20017;-75
2022/11/10 00:58:47;;;;;;;3.80;1.92;;;9.50;99.90;;;;;;5029747;28;20040;-75
2022/11/10 01:01:14;;;;;;;4.43;2.00;;;9.40;99.90;;;;;;5047679;28;20077;-76
2022/11/10 01:03:40;;;;;;;2.45;2.10;;;9.30;99.90;;;;;;5047587;28;20029;-75
2022/11/10 01:06:14;;;;;;;1.58;1.38;;;9.30;99.90;;;;;;5047919;28;20338;-76
2022/11/10 01:08:40;;;;;;;1.52;1.40;;;9.00;99.90;;;;;;5047555;28;20021;-76
2022/11/10 01:11:18;;;;;;;1.60;1.50;;;9.00;99.90;;;;;;5029536;28;20513;-76
2022/11/10 01:13:44;;;;;;;1.90;1.73;;;9.00;99.90;;;;;;5047398;28;20103;-76
2022/11/10 01:16:13;;;;;;;4.25;1.60;;;9.00;99.90;;;;;;5029517;28;20024;-76
2022/11/10 01:18:40;;;;;;;2.65;1.42;;;8.90;99.90;;;;;;5047304;28;20079;-76
2022/11/10 01:21:09;;;;;;;3.50;1.58;;;8.90;99.90;;;;;;5047215;28;20033;-76
2022/11/10 01:23:35;;;;;;;4.07;1.60;;;8.70;99.90;;;;;;5047803;28;20021;-76
2022/11/10 01:26:04;;;;;;;9.15;2.05;;;8.50;99.90;;;;;;5047305;28;20365;-76
2022/11/10 01:28:31;;;;;;;3.45;2.25;;;8.40;99.90;;;;;;5046787;28;20117;-76
2022/11/10 01:31:08;;;;;;;5.90;2.03;;;8.40;99.90;;;;;;5029507;28;20409;-76
2022/11/10 01:33:34;;;;;;;2.03;1.83;;;8.30;99.90;;;;;;5046926;28;20473;-77
2022/11/10 01:36:00;;;;;;;1.38;1.27;;;8.40;99.90;;;;;;5047367;28;20025;-76
2022/11/10 01:38:28;;;;;;;2.53;2.33;;;8.30;99.90;;;;;;5047310;28;20453;-76
2022/11/10 01:40:55;;;;;;;2.67;1.92;;;8.20;99.90;;;;;;5047088;28;20064;-76
2022/11/10 01:43:20;;;;;;;4.43;2.17;;;8.30;99.90;;;;;;5047319;28;20025;-76
2022/11/10 01:45:49;;;;;;;1.90;1.65;;;8.30;99.90;;;;;;5046949;28;20033;-76
2022/11/10 01:48:30;;;;;;;3.55;1.83;;;8.20;99.90;;;;;;5046797;28;20389;-76
2022/11/10 01:51:05;;;;;;;5.55;1.58;;;8.10;99.90;;;;;;5032512;28;20029;-76
2022/11/10 01:53:33;;;;;;;3.13;2.00;;;8.10;99.90;;;;;;5051432;28;20083;-76
2022/11/10 01:56:00;;;;;;;3.75;2.22;;;8.00;99.90;;;;;;5052000;28;20029;-76
2022/11/10 01:58:30;;;;;;;5.45;1.92;;;8.10;99.90;;;;;;5051421;28;20021;-76
2022/11/10 02:00:56;;;;;;;6.43;2.00;;;8.10;99.90;;;;;;5049517;28;20564;-75
2022/11/10 02:03:28;;;;;;;1.95;1.85;;;8.00;99.90;;;;;;5047148;28;20104;-76
2022/11/10 02:05:54;;;;;;;3.10;2.00;;;8.10;99.90;;;;;;5028816;28;20025;-76
2022/11/10 02:08:22;;;;;;;3.53;1.70;;;8.10;99.90;;;;;;5047071;28;20017;-76
2022/11/10 02:10:48;;;;;;;5.00;1.58;;;7.90;99.90;;;;;;5046724;28;20027;-76
2022/11/10 02:13:13;;;;;;;3.08;2.13;;;7.80;99.90;;;;;;5046469;28;20021;-75
2022/11/10 02:15:39;;;;;;;2.55;1.50;;;7.60;99.90;;;;;;5046897;28;20025;-75
2022/11/10 02:18:05;;;;;;;1.55;1.40;;;7.40;99.90;;;;;;5046487;28;20025;-75
2022/11/10 02:20:30;;;;;;;1.38;1.15;;;7.30;99.90;;;;;;5046985;28;20017;-76
2022/11/10 02:22:56;;;;;;;2.53;1.27;;;7.20;99.90;;;;;;5046962;28;20054;-75
2022/11/10 02:25:24;;;;;;;2.78;1.67;;;7.20;99.90;;;;;;5046690;28;20017;-75
2022/11/10 02:27:49;;;;;;;2.33;1.70;;;7.30;99.90;;;;;;5026098;28;20033;-76
2022/11/10 02:30:16;;;;;;;4.78;2.58;;;7.50;99.90;;;;;;5026612;28;20033;-75
2022/11/10 02:32:41;;;;;;;1.65;1.52;;;7.50;99.90;;;;;;5026506;28;20025;-76
2022/11/10 02:35:07;;;;;;;1.42;1.27;;;7.50;99.90;;;;;;5026498;28;20042;-76
2022/11/10 02:37:33;;;;;;;2.92;1.10;;;7.40;99.90;;;;;;5025243;28;20057;-76
2022/11/10 02:39:59;;;;;;;1.33;1.20;;;7.20;99.90;;;;;;5027437;28;20144;-76
2022/11/10 02:42:25;;;;;;;3.03;1.15;;;7.20;99.90;;;;;;5027299;28;20501;-76
2022/11/10 02:44:51;;;;;;;2.13;1.42;;;7.10;99.90;;;;;;5026515;28;20029;-76
2022/11/10 02:47:17;;;;;;;1.50;1.38;;;;;;;;;;5009554;28;20025;-76
2022/11/10 02:49:43;;;;;;;2.67;1.73;;;7.10;99.90;;;;;;5028814;28;20029;-76
2022/11/10 02:52:10;;;;;;;2.80;1.88;;;7.10;99.90;;;;;;5027662;28;20366;-76
2022/11/10 02:54:35;;;;;;;4.15;1.73;;;7.40;99.90;;;;;;5027995;28;20470;-76
2022/11/10 02:57:01;;;;;;;3.75;1.90;;;7.60;99.90;;;;;;5010036;28;20022;-76
2022/11/10 02:59:27;;;;;;;7.75;1.77;;;7.60;99.90;;;;;;5027301;28;20081;-76
2022/11/10 03:01:54;;;;;;;4.30;1.58;;;7.80;99.90;;;;;;5026898;28;20041;-75
2022/11/10 03:04:21;;;;;;;3.88;1.95;;;7.80;99.90;;;;;;5027134;28;20084;-75
2022/11/10 03:06:46;;;;;;;5.63;1.67;;;7.80;99.90;;;;;;5027876;28;20025;-76
2022/11/10 03:09:12;;;;;;;3.38;1.63;;;7.90;99.90;;;;;;5029253;28;20093;-76
2022/11/10 03:11:37;;;;;;;8.13;2.35;;;8.00;99.90;;;;;;5029178;28;20049;-76
2022/11/10 03:14:03;;;;;;;5.68;2.58;;;8.00;99.90;;;;;;5015730;28;20105;-76
2022/11/10 03:16:29;;;;;;;11.68;2.33;;;8.00;99.90;;;;;;5033913;28;20466;-76
2022/11/10 03:18:54;;;;;;;2.08;1.20;;;8.10;99.90;;;;;;5015200;28;20029;-76
2022/11/10 03:21:20;;;;;;;1.55;1.02;;;8.00;99.90;;;;;;5032626;28;20045;-76
2022/11/10 03:23:46;;;;;;;1.05;0.90;;;8.00;99.90;;;;;;5033156;28;20029;-76
2022/11/10 03:26:11;;;;;;;3.72;1.50;;;7.80;99.90;;;;;;5015572;28;20022;-76
2022/11/10 03:28:37;;;;;;;3.50;1.42;;;7.80;99.90;;;;;;5033518;28;20482;-76
2022/11/10 03:31:03;;;;;;;2.13;1.98;;;7.70;99.90;;;;;;5033338;28;20075;-76
2022/11/10 03:33:29;;;;;;;1.92;1.77;;;7.60;99.90;;;;;;5032686;28;20026;-76
2022/11/10 03:35:54;;;;;;;1.50;1.23;;;7.50;99.90;;;;;;5032858;28;20083;-76
2022/11/10 03:38:20;;;;;;;2.53;1.05;;;;;;;;;;5033338;28;20033;-75
2022/11/10 03:40:48;;;;;;;6.45;1.73;;;7.30;99.90;;;;;;5033784;28;20432;-76
2022/11/10 03:43:15;;;;;;;2.13;1.65;;;7.40;99.90;;;;;;5033665;28;20474;-76
2022/11/10 03:45:43;;;;;;;3.67;2.67;;;7.50;99.90;;;;;;5033292;28;20112;-76
2022/11/10 03:48:09;;;;;;;1.30;1.20;;;;;;;;;;5032911;28;20028;-76
2022/11/10 03:50:35;;;;;;;1.67;0.90;;;7.50;99.90;;;;;;5032604;28;20045;-76
2022/11/10 03:53:01;;;;;;;1.58;1.30;;;7.30;99.90;;;;;;5032651;28;20067;-76
2022/11/10 03:55:27;;;;;;;1.27;1.17;;;6.80;99.90;;;;;;5032593;28;20036;-76
2022/11/10 03:57:52;;;;;;;3.95;1.75;;;6.80;99.90;;;;;;5032900;28;20510;-76
2022/11/10 04:00:18;;;;;;;1.63;1.15;;;6.70;99.90;;;;;;5032701;28;20390;-76
2022/11/10 04:02:44;;;;;;;5.22;1.83;;;6.80;99.90;;;;;;5014722;28;20045;-76
2022/11/10 04:10:43;;;;;;;1.50;1.17;;;6.50;99.90;;;;;;5032643;28;20120;-76
2022/11/10 04:15:54;;;;;;;1.05;1.05;;;6.50;99.90;;;;;;5032394;28;20099;-76
2022/11/10 04:18:20;;;;;;;1.65;1.00;;;6.50;99.90;;;;;;5014216;28;20467;-76
2022/11/10 04:20:49;;;;;;;2.25;1.70;;;6.60;99.90;;;;;;5032422;28;20041;-76
2022/11/10 04:23:29;;;;;;;7.18;1.83;;;6.60;99.90;;;;;;5032118;28;20021;-76
2022/11/10 04:26:27;;;;;;;7.25;0.70;;;6.60;99.90;;;;;;5013967;28;20083;-76
2022/11/10 04:28:55;;;;;;;1.50;0.77;;;6.40;99.90;;;;;;5032030;28;20540;-76
2022/11/10 04:31:23;;;;;;;1.58;1.25;;;6.80;99.90;;;;;;5014267;28;20356;-76
2022/11/10 04:33:49;;;;;;;0.80;0.77;;;6.80;99.90;;;;;;5032053;28;20053;-77
2022/11/10 04:36:18;;;;;;;2.38;1.25;;;6.20;99.90;;;;;;5032795;28;20079;-76
2022/11/10 04:38:44;;;;;;;0.83;0.70;;;6.00;99.90;;;;;;5032323;28;20164;-76
2022/11/10 04:41:10;;;;;;;1.27;1.15;;;6.00;99.90;;;;;;5032556;28;20525;-76
2022/11/10 04:43:37;;;;;;;2.60;1.00;;;6.20;99.90;;;;;;5032107;28;20173;-76
2022/11/10 04:46:04;;;;;;;1.95;1.40;;;6.20;99.90;;;;;;5032476;28;20121;-77
2022/11/10 04:48:33;;;;;;;2.92;1.85;;;6.20;99.90;;;;;;5031818;28;20056;-76
2022/11/10 04:51:03;;;;;;;1.38;1.27;;;6.10;99.90;;;;;;5032074;28;20458;-76
2022/11/10 04:53:31;;;;;;;1.75;1.10;;;6.10;99.90;;;;;;5031776;28;20014;-76
2022/11/10 04:55:57;;;;;;;1.52;1.02;;;6.20;99.90;;;;;;5032154;28;20025;-76
2022/11/10 04:58:22;;;;;;;1.08;1.00;;;6.50;99.90;;;;;;5014306;28;20425;-76
2022/11/10 05:00:48;;;;;;;7.85;2.80;;;3.60;99.90;;;;;;5032201;28;20048;-76
2022/11/10 05:03:14;;;;;;;1.48;1.38;;;6.60;99.90;;;;;;5032011;28;20421;-76
2022/11/10 05:05:40;;;;;;;2.13;1.38;;;6.60;99.90;;;;;;5031854;28;20194;-75
2022/11/10 05:08:06;;;;;;;4.88;1.58;;;6.50;99.90;;;;;;5031573;28;20021;-77
2022/11/10 05:10:33;;;;;;;4.68;2.63;;;6.30;99.90;;;;;;5013958;28;20029;-76
2022/11/10 05:12:59;;;;;;;1.98;1.20;;;6.30;99.90;;;;;;5031702;28;20034;-76
2022/11/10 05:15:25;;;;;;;4.15;1.27;;;6.20;99.90;;;;;;5014160;28;20025;-76
2022/11/10 05:17:52;;;;;;;2.45;1.30;;;6.20;99.90;;;;;;5031595;28;20501;-76
2022/11/10 05:20:23;;;;;;;2.38;1.40;;;6.90;99.90;;;;;;5031394;28;20018;-76
2022/11/10 05:25:37;;;;;;;1.35;1.27;;;5.80;99.90;;;;;;5031440;28;20543;-77
2022/11/10 05:28:04;;;;;;;2.25;0.90;;;6.60;99.90;;;;;;5033661;28;20028;-76
2022/11/10 05:30:30;;;;;;;3.83;1.15;;;5.60;99.90;;;;;;5035171;28;20108;-77
2022/11/10 05:32:56;;;;;;;5.28;1.52;;;5.60;99.90;;;;;;5037172;28;20119;-77
2022/11/10 05:35:23;;;;;;;2.55;2.05;;;5.80;99.90;;;;;;5035540;28;20577;-77
2022/11/10 05:37:49;;;;;;;1.40;0.93;;;;;;;;;;5034144;28;20083;-77
2022/11/10 05:40:15;;;;;;;1.02;0.88;;;5.20;99.90;;;;;;5032444;28;20482;-77
2022/11/10 05:42:48;;;;;;;2.03;1.10;;;5.20;99.90;;;;;;5032214;28;20036;-76
2022/11/10 05:45:14;;;;;;;5.25;1.25;;;5.80;99.90;;;;;;5032219;28;20040;-76
2022/11/10 05:47:40;;;;;;;2.65;1.65;;;5.20;99.90;;;;;;5031934;28;20026;-76
2022/11/10 05:50:07;;;;;;;2.15;1.52;;;5.20;99.90;;;;;;5014212;28;20040;-76
2022/11/10 05:52:34;;;;;;;2.10;1.13;;;5.20;99.90;;;;;;5031307;28;20409;-76
2022/11/10 05:55:00;;;;;;;0.95;0.77;;;6.10;99.90;;;;;;5031729;28;20029;-76
2022/11/10 05:57:26;;;;;;;7.95;5.47;;;5.50;99.90;;;;;;5031655;28;20099;-76
2022/11/10 05:59:51;;;;;;;9.52;4.63;;;5.70;99.90;;;;;;5013545;28;20026;-76
2022/11/10 06:02:17;;;;;;;3.88;2.97;;;5.00;99.90;;;;;;5031257;28;20033;-76
2022/11/10 06:04:43;;;;;;;7.25;3.97;;;6.00;99.90;;;;;;5032451;28;20075;-76
2022/11/10 06:07:08;;;;;;;4.05;2.67;;;4.90;99.90;;;;;;5031465;28;20025;-76
2022/11/10 06:09:34;;;;;;;4.05;2.88;;;5.70;99.90;;;;;;5031574;28;20159;-76
2022/11/10 06:12:02;;;;;;;2.88;1.80;;;5.60;99.90;;;;;;5014916;28;20032;-76
2022/11/10 06:14:27;;;;;;;3.95;1.40;;;5.10;99.90;;;;;;5033460;28;20382;-76
2022/11/10 06:16:53;;;;;;;1.52;1.10;;;5.30;99.90;;;;;;5031585;28;20029;-76
2022/11/10 06:19:19;;;;;;;1.70;1.42;;;5.10;99.90;;;;;;5031191;28;20017;-76
2022/11/10 06:21:44;;;;;;;7.05;1.15;;;5.10;99.90;;;;;;5031386;28;20220;-77
2022/11/10 06:24:10;;;;;;;0.80;0.80;;;5.00;99.90;;;;;;5031475;28;20375;-77
2022/11/10 06:26:36;;;;;;;4.53;1.05;;;4.80;99.90;;;;;;5031198;28;20083;-76
2022/11/10 06:29:02;;;;;;;2.17;1.13;;;4.60;99.90;;;;;;5013712;28;20025;-77
2022/11/10 06:31:27;;;;;;;1.33;1.00;;;4.60;99.90;;;;;;5013251;28;20094;-77
2022/11/10 06:33:54;;;;;;;1.02;1.00;;;4.50;99.90;;;;;;5030838;28;20544;-77
2022/11/10 06:36:20;;;;;;;1.05;1.05;;;6.20;99.90;;;;;;5031039;28;20589;-76
2022/11/10 06:38:45;;;;;;;14.32;3.28;;;4.90;99.90;;;;;;5031403;28;20294;-77
2022/11/10 06:41:11;;;;;;;19.52;3.22;;;6.00;99.90;;;;;;5035476;28;20049;-77
2022/11/10 06:43:37;;;;;;;4.20;1.02;;;;;;;;;;5038875;28;20029;-76
2022/11/10 06:46:03;;;;;;;2.00;0.80;;;4.70;99.90;;;;;;5051109;28;20217;-77
2022/11/10 06:48:29;;;;;;;0.57;0.57;;;4.70;99.90;;;;;;5061421;28;20021;-77
2022/11/10 06:50:54;;;;;;;1.00;0.98;;;4.50;99.90;;;;;;5041440;28;20064;-76
2022/11/10 06:53:20;;;;;;;10.00;1.80;;;4.50;99.90;;;;;;5020545;28;20090;-76
2022/11/10 06:55:45;;;;;;;0.90;0.85;;;6.30;99.90;;;;;;5038342;28;20029;-76
2022/11/10 06:58:11;;;;;;;0.68;0.65;;;5.90;99.90;;;;;;5014615;28;20040;-78
2022/11/10 07:00:37;;;;;;;10.10;1.60;;;6.40;99.90;;;;;;5014844;28;20417;-79
2022/11/10 07:03:22;;;;;;;1.33;1.13;;;4.70;99.90;;;;;;5046168;28;20079;-79
2022/11/10 07:05:48;;;;;;;2.25;0.82;;;6.40;99.90;;;;;;5053673;28;20036;-78
2022/11/10 07:08:15;;;;;;;2.70;0.80;;;5.00;99.90;;;;;;5036941;28;20029;-78
2022/11/10 07:10:49;;;;;;;1.08;0.80;;;4.70;99.90;;;;;;5055256;28;20034;-79
2022/11/10 07:13:15;;;;;;;4.93;0.50;;;4.60;99.90;;;;;;5039303;28;20041;-79
2022/11/10 07:15:41;;;;;;;1.02;0.93;;;4.60;99.90;;;;;;5054049;28;20033;-78
2022/11/10 07:18:07;;;;;;;6.20;1.00;;;5.60;99.90;;;;;;5051434;28;20436;-80
2022/11/10 07:20:34;;;;;;;2.83;1.75;;;4.50;99.90;;;;;;5049502;28;20044;-79
2022/11/10 07:23:03;;;;;;;1.58;1.00;;;4.90;99.90;;;;;;5033370;28;20533;-79
2022/11/10 07:25:30;;;;;;;1.98;1.20;;;4.60;99.90;;;;;;5049974;28;20043;-80
2022/11/10 07:27:58;;;;;;;1.67;1.02;;;5.20;99.90;;;;;;5032030;28;20052;-78
2022/11/10 07:30:25;;;;;;;1.13;1.00;;;6.10;99.90;;;;;;5049397;28;20342;-78
2022/11/10 07:33:01;;;;;;;5.90;1.40;;;5.30;99.90;;;;;;5053462;28;20523;-78
2022/11/10 07:35:27;;;;;;;3.75;1.35;;;5.10;99.90;;;;;;5053179;28;20098;-78
2022/11/10 07:37:54;;;;;;;6.85;2.05;;;6.00;99.90;;;;;;5052717;28;20013;-76
2022/11/10 07:40:21;;;;;;;5.90;1.48;;;5.30;99.90;;;;;;5035659;28;20028;-78
2022/11/10 07:42:47;;;;;;;2.53;1.45;;;6.20;99.90;;;;;;5053143;28;20494;-78
2022/11/10 07:45:13;;;;;;;2.35;0.77;;;5.60;99.90;;;;;;5032227;28;20025;-78
2022/11/10 07:47:39;;;;;;;1.60;1.13;;;5.60;99.90;;;;;;5049783;28;20037;-77
2022/11/10 07:50:05;;;;;;;2.13;0.85;;;5.70;99.90;;;;;;5051358;28;20035;-77
2022/11/10 07:52:31;;;;;;;2.25;1.27;;;5.80;99.90;;;;;;5033364;28;20028;-78
2022/11/10 07:54:56;;;;;;;4.90;0.98;;;5.90;99.90;;;;;;5052680;28;20385;-76
2022/11/10 07:57:22;;;;;;;3.85;1.30;;;6.10;99.90;;;;;;5052086;28;20100;-81
2022/11/10 07:59:48;;;;;;;0.70;0.70;;;6.20;99.90;;;;;;5050981;28;20044;-76
2022/11/10 08:02:14;;;;;;;1.75;1.60;;;6.20;99.90;;;;;;5033164;28;20048;-78
2022/11/10 08:04:39;;;;;;;1.67;1.52;;;6.20;99.90;;;;;;5048054;28;20071;-78
2022/11/10 08:07:05;;;;;;;4.22;0.98;;;6.30;99.90;;;;;;5047436;28;20462;-78
2022/11/10 08:09:31;;;;;;;2.85;1.50;;;6.50;99.90;;;;;;5047020;28;20071;-78
2022/11/10 08:11:57;;;;;;;4.88;1.25;;;6.50;99.90;;;;;;5049556;28;20073;-78
2022/11/10 08:14:22;;;;;;;1.27;1.08;;;6.70;99.90;;;;;;5052774;28;20492;-78
2022/11/10 08:16:49;;;;;;;1.83;1.52;;;6.80;99.90;;;;;;5047423;28;20521;-78
2022/11/10 08:19:15;;;;;;;2.15;1.60;;;7.00;99.90;;;;;;5029617;28;20128;-78
2022/11/10 08:21:40;;;;;;;5.55;1.63;;;7.10;99.90;;;;;;5029699;28;20159;-77
2022/11/10 08:24:07;;;;;;;1.60;1.23;;;;;;;;;;5030630;28;20236;-78
2022/11/10 08:26:32;;;;;;;1.77;1.27;;;7.30;99.90;;;;;;5027965;28;20138;-78
2022/11/10 08:28:58;;;;;;;1.75;1.30;;;7.40;99.90;;;;;;5027286;28;20481;-78
2022/11/10 08:31:24;;;;;;;6.32;1.50;;;7.40;99.90;;;;;;5045164;28;20028;-77
2022/11/10 08:33:50;;;;;;;2.15;1.38;;;7.50;99.90;;;;;;5027646;28;20463;-78
2022/11/10 08:36:16;;;;;;;3.72;1.20;;;7.50;99.90;;;;;;5045962;28;20098;-77
2022/11/10 08:38:41;;;;;;;2.55;1.60;;;7.60;99.90;;;;;;5044541;28;20063;-77
2022/11/10 08:41:07;;;;;;;5.25;1.42;;;7.70;99.90;;;;;;5051283;28;20056;-78
2022/11/10 08:43:33;;;;;;;2.33;1.48;;;7.80;99.90;;;;;;5052538;28;20029;-75
2022/11/10 08:46:00;;;;;;;4.65;1.77;;;7.90;99.90;;;;;;5055324;28;20029;-76
2022/11/10 08:48:26;;;;;;;1.77;1.33;;;7.90;99.90;;;;;;5053819;28;20025;-75
2022/11/10 08:50:53;;;;;;;2.55;1.75;;;8.00;99.90;;;;;;5058147;28;20258;-75
2022/11/10 08:53:22;;;;;;;3.10;2.17;;;8.10;99.90;;;;;;5057231;28;20291;-75
2022/11/10 08:55:48;;;;;;;4.63;2.38;;;8.20;99.90;;;;;;5057612;28;20040;-75
2022/11/10 08:58:20;;;;;;;10.07;2.85;;;8.30;99.90;;;;;;5056820;28;20336;-75
2022/11/10 09:00:47;;;;;;;4.97;2.70;;;8.40;99.90;;;;;;5058155;28;20036;-77
2022/11/10 09:03:14;;;;;;;5.93;4.10;;;8.60;99.90;;;;;;5058813;28;20536;-78
2022/11/10 09:05:40;;;;;;;5.78;3.28;;;8.70;99.90;;;;;;5058822;28;20021;-78
2022/11/10 09:08:07;;;;;;;5.85;3.65;;;8.90;99.90;;;;;;5041500;28;20317;-81
2022/11/10 09:10:35;;;;;;;6.72;2.95;;;9.00;99.90;;;;;;5060997;28;20025;-78
2022/11/10 09:13:03;;;;;;;5.60;3.28;;;9.00;99.90;;;;;;5061606;28;20021;-82
2022/11/10 09:15:30;;;;;;;8.73;3.65;;;9.10;99.90;;;;;;5045626;28;20108;-77
2022/11/10 09:18:00;;;;;;;5.07;3.03;;;9.20;99.90;;;;;;5061593;28;20063;-77
2022/11/10 09:20:30;;;;;;;4.32;3.50;;;9.20;99.90;;;;;;5059624;28;20048;-79
2022/11/10 09:23:02;;;;;;;9.18;4.18;;;9.20;99.90;;;;;;5041134;28;20048;-79
2022/11/10 09:25:28;;;;;;;4.60;3.28;;;7.60;99.90;;;;;;5058802;28;20024;-79
2022/11/10 09:27:57;;;;;;;9.48;4.35;;;9.40;99.90;;;;;;5057551;28;20202;-77
2022/11/10 09:30:24;;;;;;;6.55;4.53;;;9.40;99.90;;;;;;5058193;28;20036;-79
2022/11/10 09:32:54;;;;;;;8.07;4.22;;;9.40;99.90;;;;;;5057390;28;20032;-77
2022/11/10 09:35:20;;;;;;;8.63;4.07;;;9.50;99.90;;;;;;5058669;28;20090;-77
2022/11/10 09:37:45;;;;;;;6.15;4.68;;;9.50;99.90;;;;;;5057842;28;20070;-77
2022/11/10 09:40:18;;;;;;;13.57;4.85;;;9.50;99.90;;;;;;5041902;28;20301;-75
2022/11/10 09:42:55;;;;;;;8.93;5.22;;;9.70;99.90;;;;;;5037555;28;20025;-77
2022/11/10 09:45:45;;;;;;;8.82;4.90;;;9.70;99.90;;;;;;5039634;28;20055;-76
2022/11/10 09:48:17;;;;;;;12.40;6.45;;;9.70;99.90;;;;;;5033920;28;20025;-78
2022/11/10 09:51:18;;;;;;;8.38;5.25;;;9.60;99.90;;;;;;5052298;28;20049;-76
2022/11/10 09:53:54;;;;;;;13.35;5.07;;;9.70;99.90;;;;;;5057662;28;20029;-77
2022/11/10 09:56:39;;;;;;;12.20;5.82;;;9.70;99.90;;;;;;5057201;28;20028;-77
2022/11/10 09:59:26;;;;;;;6.40;4.00;;;9.80;99.90;;;;;;5054363;28;20040;-75
2022/11/10 10:02:11;;;;;;;9.90;4.53;;;9.90;99.90;;;;;;5047200;28;20040;-75
2022/11/10 10:05:01;;;;;;;12.38;4.15;;;9.90;99.90;;;;;;5050580;28;20205;-77
2022/11/10 10:07:37;;;;;;;12.10;3.67;;;10.00;99.90;;;;;;5057154;28;20388;-76
2022/11/10 10:10:33;;;;;;;12.15;3.45;;;10.00;99.90;;;;;;5057107;28;20044;-75
2022/11/10 10:13:33;;;;;;;7.43;4.10;;;10.10;99.90;;;;;;5056600;28;20431;-76
2022/11/10 10:16:23;;;;;;;10.13;5.40;;;10.20;99.90;;;;;;5057420;28;20025;-75
2022/11/10 10:18:51;;;;;;;11.50;4.15;;;10.20;99.90;;;;;;5056775;28;20031;-77
2022/11/10 10:21:42;;;;;;;10.85;4.72;;;11.30;99.90;;;;;;5057417;28;20040;-77
2022/11/10 10:24:19;;;;;;;11.48;4.72;;;10.50;99.90;;;;;;5060892;28;20021;-76
2022/11/10 10:26:52;;;;;;;6.22;3.50;;;10.70;99.90;;;;;;5033402;28;20114;-75
2022/11/10 10:29:36;;;;;;;6.22;3.58;;;10.90;99.90;;;;;;5052691;28;20385;-75
2022/11/10 10:32:02;;;;;;;3.67;2.38;;;10.90;99.90;;;;;;5042288;28;20087;-76
2022/11/10 10:34:30;;;;;;;4.28;2.45;;;10.90;99.90;;;;;;5063727;28;20104;-75
2022/11/10 10:36:56;;;;;;;3.83;2.28;;;11.00;99.90;;;;;;5063803;28;20028;-75
2022/11/10 10:39:45;;;;;;;4.28;1.80;;;11.00;99.90;;;;;;5064404;28;20051;-77
2022/11/10 10:42:30;;;;;;;1.80;1.63;;;11.10;99.90;;;;;;5061341;28;20048;-77
2022/11/10 10:45:15;;;;;;;2.63;1.42;;;11.10;99.90;;;;;;5065277;28;20249;-75
2022/11/10 10:47:41;;;;;;;2.40;2.20;;;11.00;99.90;;;;;;5054703;28;20021;-76
2022/11/10 10:50:21;;;;;;;7.63;1.40;;;11.00;99.90;;;;;;5053956;28;20110;-75
2022/11/10 10:53:06;;;;;;;1.85;1.60;;;11.00;99.90;;;;;;5056392;28;20115;-74
2022/11/10 10:55:33;;;;;;;5.18;1.35;;;11.00;99.90;;;;;;5062311;28;20253;-77
2022/11/10 10:58:02;;;;;;;4.65;1.40;;;11.00;99.90;;;;;;5040649;28;20021;-77
2022/11/10 11:00:28;;;;;;;;;;;11.00;99.90;;;;;;5044572;28;20048;-77
2022/11/10 11:03:05;;;;;;;0.90;0.90;;;11.00;99.90;;;;;;5043175;28;20102;-75
2022/11/10 11:05:31;;;;;;;3.50;1.13;;;11.00;99.90;;;;;;5043273;28;20025;-76
2022/11/10 11:07:59;;;;;;;2.65;2.00;;;11.00;99.90;;;;;;5043673;28;20035;-78
2022/11/10 11:10:32;;;;;;;2.10;1.60;;;11.10;99.90;;;;;;5043329;28;20030;-75
2022/11/10 11:13:23;;;;;;;3.10;1.00;;;11.10;99.90;;;;;;5042666;28;20059;-75
2022/11/10 11:16:11;;;;;;;3.85;0.80;;;11.00;99.90;;;;;;5037656;28;20025;-77
2022/11/10 11:18:39;;;;;;;2.50;1.30;;;11.00;99.90;;;;;;5034355;28;20036;-77
2022/11/10 11:21:16;;;;;;;3.13;0.77;;;11.00;99.90;;;;;;5035641;28;20136;-76
2022/11/10 11:24:00;;;;;;;5.88;0.98;;;11.00;99.90;;;;;;5046910;28;20032;-77
2022/11/10 11:26:50;;;;;;;8.02;1.50;;;11.00;99.90;;;;;;5040169;28;20022;-77
2022/11/10 11:29:52;;;;;;;1.38;1.10;;;11.00;99.90;;;;;;5042531;28;20466;-76
2022/11/10 11:32:32;;;;;;;1.40;0.60;;;11.00;99.90;;;;;;5053992;28;20039;-77
2022/11/10 11:35:31;;;;;;;5.25;0.95;;;11.20;99.90;;;;;;5061224;28;20099;-76
2022/11/10 11:38:11;;;;;;;1.23;0.95;;;11.20;99.90;;;;;;5059525;28;20469;-77
2022/11/10 11:40:58;;;;;;;4.15;1.48;;;12.10;99.90;;;;;;5052154;28;20212;-76
2022/11/10 11:43:33;;;;;;;1.15;1.10;;;11.40;99.90;;;;;;5021516;28;20422;-77
2022/11/10 11:46:33;;;;;;;1.52;0.82;;;11.50;99.90;;;;;;5039967;28;20318;-76
2022/11/10 11:49:30;;;;;;;1.25;1.15;;;11.50;99.90;;;;;;5039527;28;20040;-76
2022/11/10 11:52:47;;;;;;;2.60;1.23;;;11.50;99.90;;;;;;5038855;28;20026;-76
2022/11/10 11:55:29;;;;;;;1.85;0.82;;;11.70;99.90;;;;;;5005917;28;20045;-76
2022/11/10 11:58:32;;;;;;;4.10;1.05;;;11.80;99.90;;;;;;5039097;28;20445;-77
2022/11/10 12:01:20;;;;;;;3.92;0.52;;;11.80;99.90;;;;;;5039051;28;20352;-76
2022/11/10 12:04:15;;;;;;;2.08;1.63;;;11.90;99.90;;;;;;5015279;28;20108;-75
2022/11/10 12:06:47;;;;;;;2.15;0.60;;;11.90;99.90;;;;;;5030531;28;20022;-77
2022/11/10 12:09:21;;;;;;;2.35;1.42;;;12.00;99.90;;;;;;5039629;28;20209;-77
2022/11/10 12:12:17;;;;;;;2.92;0.60;;;12.00;99.90;;;;;;5038962;28;20318;-77
2022/11/10 12:15:19;;;;;;;0.57;0.57;;;12.00;99.90;;;;;;5037884;28;20056;-77
2022/11/10 12:17:57;;;;;;;0.70;0.70;;;12.10;99.90;;;;;;5042133;28;20020;-78
2022/11/10 12:20:46;;;;;;;0.70;0.70;;;12.20;99.90;;;;;;5059224;28;20029;-78
2022/11/10 12:23:54;;;;;;;1.98;0.90;;;12.30;99.90;;;;;;4996352;28;20420;-77
2022/11/10 12:26:26;;;;;;;1.60;1.15;;;12.30;99.90;;;;;;5041990;28;20300;-78
2022/11/10 12:29:20;;;;;;;1.45;0.60;;;12.40;99.90;;;;;;5041874;28;20292;-79
2022/11/10 12:31:49;;;;;;;3.95;1.20;;;12.40;99.90;;;;;;5059034;28;20025;-78
2022/11/10 12:34:21;;;;;;;3.72;1.30;;;12.50;99.90;;;;;;5058927;28;20053;-77
2022/11/10 12:36:47;;;;;;;2.40;0.55;;;12.70;99.90;;;;;;5059951;28;20108;-78
2022/11/10 12:39:26;;;;;;;1.23;0.63;;;12.90;99.90;;;;;;5059382;28;20028;-76
2022/11/10 12:41:57;;;;;;;0.98;0.88;;;13.40;99.90;;;;;;5057733;28;20041;-78
2022/11/10 12:44:34;;;;;;;1.10;0.75;;;14.40;99.90;;;;;;5055424;28;20052;-79
2022/11/10 12:47:04;;;;;;;1.48;0.65;;;16.50;99.90;;;;;;5057226;28;20029;-79
2022/11/10 12:49:39;;;;;;;0.43;0.43;;;18.10;92.30;;;;;;5057556;28;20036;-78
2022/11/10 12:52:26;;;;;;;3.72;0.82;;;19.10;84.70;;;;;;5057920;28;20019;-76
2022/11/10 12:54:52;;;;;;;1.10;1.00;;;19.60;75.30;;;;;;5058800;28;20348;-78
2022/11/10 12:57:25;;;;;;;0.85;0.30;;;19.60;73.30;;;;;;5058962;28;20102;-80
2022/11/10 13:00:02;;;;;;;1.75;1.38;;;20.10;70.50;;;;;;5061153;28;20221;-78
2022/11/10 13:02:39;;;;;;;1.30;0.60;;;19.70;70.00;;;;;;5057645;28;20066;-79
2022/11/10 13:05:14;;;;;;;1.02;0.70;;;20.00;69.80;;;;;;5032536;28;20040;-77
2022/11/10 13:08:03;;;;;;;0.43;0.43;;;20.20;67.40;;;;;;5021989;28;20505;-78
2022/11/10 13:10:29;;;;;;;;;;;20.20;67.90;;;;;;5015929;28;20026;-80
2022/11/10 13:13:03;;;;;;;;;;;20.40;67.00;;;;;;5026381;28;19905;-78
2022/11/10 13:15:38;;;;;;;;;;;20.20;66.50;;;;;;5026337;28;20495;-76
2022/11/10 13:18:23;;;;;;;;;;;20.30;68.00;;;;;;5013027;28;19924;-79
2022/11/10 13:20:50;;;;;;;;;;;20.90;66.20;;;;;;5023638;28;19959;-80
2022/11/10 13:23:24;;;;;;;;;;;21.60;65.50;;;;;;5007706;28;20277;-79
2022/11/10 13:25:53;;;;;;;;;;;22.70;62.90;;;;;;5025691;28;19909;-79
2022/11/10 13:28:37;;;;;;;;;;;23.40;59.50;;;;;;5026364;28;19996;-80
2022/11/10 13:31:21;;;;;;;;;;;23.70;58.40;;;;;;5027484;28;20362;-80